Terminal Aerodrome Forecast
Issued by NWS

Home | Current Version | Previous Version | Text Only | Print | Product List | Glossary On
Versions: 1 2 3 4 5 6 7 8 9 10 11 12 13 14 15 16 17 18 19 20 21 22 23 24 25 26 27 28 29
165
FTUS42 KCAE 010525
TAFOGB
TAF
KOGB 010525Z 0106/0206 14007KT P6SM OVC020
     FM011100 17010KT P6SM BKN008
     FM011500 21017G23KT P6SM BKN025
     FM012000 21015G25KT P6SM VCTS SCT020CB BKN050
     FM020500 23010KT P6SM BKN080=

USA.gov is the U.S. government's official web portal to all federal, state and local government web resources and services.